Barksdale Air Force Base

KBAD · 路易斯安那州, 美国

罗盘
风向 的 风向 240° Barksdale Air Force Base 15/33
风: 5 kt, 2 beaufort


5 kt
改变
0 10.000 20.000 30.000 40.000 50.000
FEW 1.400 ft
SCT 2.400 ft
BKN 40.500 ft
SPECI KSHV 091534Z 24005KT 4SM HZ FEW014 SCT024 BKN405 22/19 A3015 RMK DZB17E25

METAR Barksdale Air Force Base - KBAD/BAD

Barksdale Air Force Base是,美国中的中型机场。 该机场有一条跑道: 15/33. 该领域的国际民航组织标志是KBAD 它的国际航空运输协会代码是BAD.

这份报告是针对2022年12月9日 09:34, 当地时间在Shreveport Regional Airport进行的。

机场观察

风向为240°,速度为5 kt。

可见度为4 mi。

有几云在1.400 ft的高度, 疏云,零星散落的云朵在2.400 ft的高度 和 碎云在40.500 ft的高度。 破损或更高的上限为40.500 ft。

当前天气为阴霾。 温度和风寒是22 °C。 露点为19 °C,相对湿度为83%。 海平面上的气压为30,15 inHg (QNH)。

白天

今天,太阳从07:04升起,在17:09降落。 这适用于Barksdale Air Force Base,世界夏令时可能有所不同。 当地时间与世界标准时间之间的时差为-6 小时。 当前,没有夏令时有效。

公司介绍

我们没有关于这个机场的公司信息。

体会

到Vliegles.nl去找飞行课程,跳伞和其他飞行体验。 浏览页面,了解Barksdale Air Force Base附近所有可用的活动。 你也可以使用搜索功能来寻找你所在地附近的特定飞行课程、跳伞或其他飞行体验。

跑道

Id 标题 侧风 逆风 侧风 %
15/33 151°-331° 5 kt 100 %

逆风成分最大的方向会被突出显示,并用于横风计算。 这并不一定意味着这个方向在使用。

乌云

1.400 ft FEW 几云
2.400 ft SCT 疏云,零星散落的云朵
40.500 ft BKN 碎云

温度 & 天气

天气 阴霾
温度 22 °C
露点 19 °C
相对湿度 83%
Kp-index 1 (0-9)

评论

DZB17E25细雨 开始于 17, 结束于 25

白天

日出
07:05
中午
12:07
日落
17:10 (7:21)

小工具

你想在你的网站上有一个关于Barksdale Air Force Base的当前航空天气(METAR)的小部件吗?

显示HTML代码

我们和第三方通过cookies跟踪您在我们网站上的互联网行为。如果你继续,我们认为你同意我们的饼干政策